createdAt,value
2018-08-27T00:02:10.071Z,101052.09
2018-08-27T00:04:40.068Z,101047.84
2018-08-27T00:07:09.296Z,101043.72
2018-08-27T00:09:39.199Z,101047.97
2018-08-27T00:12:09.162Z,101045.47
2018-08-27T00:14:38.875Z,101046.31
2018-08-27T00:17:07.735Z,101049.31
2018-08-27T00:19:37.881Z,101041.55
2018-08-27T00:22:08.521Z,101036.25
2018-08-27T00:24:37.569Z,101034.39
2018-08-27T00:27:07.518Z,101034.59
2018-08-27T00:29:37.072Z,101037.80
2018-08-27T00:32:05.847Z,101031.89
2018-08-27T00:34:34.956Z,101030.98
2018-08-27T00:37:03.934Z,101037.28
2018-08-27T00:39:33.328Z,101037.91
2018-08-27T00:42:03.792Z,101036.69
2018-08-27T00:44:32.865Z,101034.48
2018-08-27T00:47:03.112Z,101034.28
2018-08-27T00:49:32.610Z,101029.22
2018-08-27T00:52:01.688Z,101029.84
2018-08-27T00:54:31.487Z,101030.56
2018-08-27T00:57:00.754Z,101033.77
2018-08-27T00:59:29.722Z,101030.25
2018-08-27T01:02:00.149Z,101028.59
2018-08-27T01:04:30.614Z,101023.32
2018-08-27T01:07:00.075Z,101011.80
2018-08-27T01:09:30.157Z,101007.58
2018-08-27T01:12:00.304Z,101010.15
2018-08-27T01:14:29.390Z,101009.12
2018-08-27T01:16:58.164Z,101013.34
2018-08-27T01:19:28.724Z,101007.88
2018-08-27T01:21:58.698Z,101008.39
2018-08-27T01:24:28.124Z,101006.62
2018-08-27T01:26:57.400Z,101007.64
2018-08-27T01:29:27.237Z,101005.70
2018-08-27T01:32:02.013Z,100992.45
2018-08-27T01:34:31.531Z,100989.75
2018-08-27T01:37:02.591Z,100989.09
2018-08-27T01:39:32.842Z,100991.89
2018-08-27T01:42:01.987Z,100991.25
2018-08-27T01:44:32.605Z,100985.95
2018-08-27T01:47:01.805Z,100988.23
2018-08-27T01:49:31.227Z,100996.39
2018-08-27T01:52:01.967Z,100991.02
2018-08-27T01:54:32.218Z,100992.67
2018-08-27T01:57:01.329Z,100991.84
2018-08-27T01:59:30.220Z,100995.98
2018-08-27T02:01:59.425Z,100992.45
2018-08-27T02:04:30.007Z,100988.94
2018-08-27T02:07:00.073Z,100988.42
2018-08-27T02:09:29.779Z,100988.11
2018-08-27T02:11:59.187Z,100982.32
2018-08-27T02:14:29.578Z,100981.69
2018-08-27T02:16:59.781Z,100983.10
2018-08-27T02:19:29.783Z,100979.37
2018-08-27T02:21:59.196Z,100980.20
2018-08-27T02:24:28.192Z,100984.36
2018-08-27T02:26:58.029Z,100981.94
2018-08-27T02:29:27.688Z,100977.50
2018-08-27T02:31:56.885Z,100978.41
2018-08-27T02:34:26.108Z,100974.16
2018-08-27T02:36:55.866Z,100976.02
2018-08-27T02:39:25.296Z,100967.12
2018-08-27T02:41:54.464Z,100961.43
2018-08-27T02:44:23.484Z,100964.56
2018-08-27T02:46:54.177Z,100963.11
2018-08-27T02:49:23.443Z,100960.42
2018-08-27T02:51:53.938Z,100951.97
2018-08-27T02:54:22.849Z,100954.78
2018-08-27T02:56:53.116Z,100952.09
2018-08-27T02:59:22.712Z,100952.80
2018-08-27T03:01:52.417Z,100937.30
2018-08-27T03:04:21.451Z,100941.02
2018-08-27T03:06:51.319Z,100935.97
2018-08-27T03:09:20.324Z,100944.42
2018-08-27T03:11:50.189Z,100937.06
2018-08-27T03:14:19.620Z,100933.34
2018-08-27T03:16:50.157Z,100931.38
2018-08-27T03:19:20.177Z,100934.48
2018-08-27T03:21:50.946Z,100932.19
2018-08-27T03:24:21.753Z,100932.09
2018-08-27T03:26:52.461Z,100932.61
2018-08-27T03:29:21.918Z,100925.56
2018-08-27T03:31:51.265Z,100928.44
2018-08-27T03:34:20.159Z,100922.43
2018-08-27T03:36:48.967Z,100919.75
2018-08-27T03:39:19.223Z,100924.20
2018-08-27T03:41:49.032Z,100917.55
2018-08-27T03:44:17.941Z,100920.94
2018-08-27T03:46:47.251Z,100916.62
2018-08-27T03:49:16.604Z,100919.48
2018-08-27T03:51:47.431Z,100920.52
2018-08-27T03:54:16.735Z,100923.88
2018-08-27T03:56:46.688Z,100923.88
2018-08-27T03:59:16.405Z,100926.02
2018-08-27T04:01:47.611Z,100927.23
2018-08-27T04:04:16.703Z,100922.19
2018-08-27T04:06:46.737Z,100928.36
2018-08-27T04:09:16.689Z,100928.36
2018-08-27T04:11:47.542Z,100926.44
2018-08-27T04:14:17.656Z,100913.72
2018-08-27T04:16:46.528Z,100915.38
2018-08-27T04:19:16.515Z,100916.02
2018-08-27T04:21:47.132Z,100911.04
2018-08-27T04:24:16.396Z,100913.08
2018-08-27T04:26:46.268Z,100919.25
2018-08-27T04:29:15.664Z,100918.28
2018-08-27T04:31:44.760Z,100913.27
2018-08-27T04:34:14.542Z,100918.32
2018-08-27T04:36:44.005Z,100915.38
2018-08-27T04:39:12.842Z,100920.37
2018-08-27T04:41:42.268Z,100918.00
2018-08-27T04:44:11.469Z,100914.93
2018-08-27T04:46:40.605Z,100910.65
2018-08-27T04:49:10.100Z,100909.56
2018-08-27T04:51:39.446Z,100909.24
2018-08-27T04:54:08.868Z,100903.55
2018-08-27T04:56:38.798Z,100898.63
2018-08-27T04:59:16.496Z,100899.14
2018-08-27T05:01:45.454Z,100899.05
2018-08-27T05:04:16.002Z,100893.36
2018-08-27T05:06:45.759Z,100893.36
2018-08-27T05:09:15.028Z,100895.02
2018-08-27T05:11:44.930Z,100887.80
2018-08-27T05:14:15.680Z,100890.63
2018-08-27T05:16:45.378Z,100890.19
2018-08-27T05:19:14.335Z,100891.52
2018-08-27T05:24:21.465Z,100883.30
2018-08-27T05:26:51.356Z,100877.30
2018-08-27T05:29:22.224Z,100879.91
2018-08-27T05:31:52.776Z,100875.05
2018-08-27T05:34:22.161Z,100865.45
2018-08-27T05:36:51.545Z,100859.47
2018-08-27T05:39:22.504Z,100854.52
2018-08-27T05:41:51.815Z,100854.20
2018-08-27T05:44:22.158Z,100851.00
2018-08-27T05:46:51.574Z,100850.89
2018-08-27T05:49:21.984Z,100850.91
2018-08-27T05:51:53.229Z,100860.01
2018-08-27T05:57:01.393Z,100855.92
2018-08-27T05:59:32.722Z,100854.50
2018-08-27T06:02:02.235Z,100847.67
2018-08-27T06:04:31.672Z,100836.92
2018-08-27T06:07:01.737Z,100834.23
2018-08-27T06:09:31.610Z,100835.69
2018-08-27T06:12:00.951Z,100833.72
2018-08-27T06:14:31.410Z,100829.28
2018-08-27T06:17:00.842Z,100822.24
2018-08-27T06:19:29.862Z,100825.37
2018-08-27T06:21:59.848Z,100821.61
2018-08-27T06:24:28.636Z,100820.30
2018-08-27T06:26:59.089Z,100819.79
2018-08-27T06:29:28.100Z,100810.73
2018-08-27T06:31:59.489Z,100814.45
2018-08-27T06:34:28.753Z,100817.61
2018-08-27T06:36:58.526Z,100815.12
2018-08-27T06:39:28.096Z,100812.86
2018-08-27T06:41:58.237Z,100805.92
2018-08-27T06:44:28.713Z,100806.52
2018-08-27T06:46:58.236Z,100801.41
2018-08-27T06:49:27.148Z,100799.78
2018-08-27T06:51:56.461Z,100796.34
2018-08-27T06:54:26.396Z,100795.20
2018-08-27T06:56:55.267Z,100788.51
2018-08-27T06:59:24.869Z,100792.95
2018-08-27T07:01:54.209Z,100778.80
2018-08-27T07:04:23.352Z,100785.32
2018-08-27T07:06:52.845Z,100781.96
2018-08-27T07:09:23.071Z,100781.45
2018-08-27T07:11:52.529Z,100786.02
2018-08-27T07:14:21.281Z,100782.75
2018-08-27T07:16:50.225Z,100792.22
2018-08-27T07:19:19.960Z,100789.56
2018-08-27T07:21:49.714Z,100789.08
2018-08-27T07:24:19.104Z,100789.38
2018-08-27T07:26:49.399Z,100790.80
2018-08-27T07:29:19.639Z,100789.97
2018-08-27T07:31:48.556Z,100776.14
2018-08-27T07:34:19.636Z,100780.19
2018-08-27T07:36:49.348Z,100779.95
2018-08-27T07:39:18.806Z,100776.08
2018-08-27T07:41:47.649Z,100761.48
2018-08-27T07:44:17.829Z,100765.26
2018-08-27T07:46:47.271Z,100759.72
2018-08-27T07:49:16.192Z,100756.55
2018-08-27T07:51:46.335Z,100749.66
2018-08-27T07:54:15.121Z,100750.28
2018-08-27T07:56:44.790Z,100753.33
2018-08-27T07:59:13.893Z,100746.66
2018-08-27T08:01:43.407Z,100748.23
2018-08-27T08:04:13.404Z,100746.38
2018-08-27T08:06:43.014Z,100745.00
2018-08-27T08:09:12.698Z,100751.27
2018-08-27T08:11:43.014Z,100739.78
2018-08-27T08:14:13.228Z,100738.56
2018-08-27T08:16:42.576Z,100733.70
2018-08-27T08:19:11.575Z,100726.28
2018-08-27T08:21:40.893Z,100723.22
2018-08-27T08:24:10.412Z,100720.76
2018-08-27T08:26:40.753Z,100719.33
2018-08-27T08:29:10.167Z,100724.45
2018-08-27T08:31:39.583Z,100726.72
2018-08-27T08:34:08.767Z,100721.83
2018-08-27T08:36:38.532Z,100724.16
2018-08-27T08:39:07.827Z,100728.08
2018-08-27T08:41:37.390Z,100727.38
2018-08-27T08:44:06.638Z,100731.17
2018-08-27T08:46:36.001Z,100741.03
2018-08-27T08:49:05.254Z,100726.25
2018-08-27T08:51:35.437Z,100724.91
2018-08-27T08:54:05.032Z,100725.34
2018-08-27T08:56:34.317Z,100725.39
2018-08-27T08:59:04.427Z,100736.40
2018-08-27T09:01:36.033Z,100734.46
2018-08-27T09:04:06.049Z,100723.98
2018-08-27T09:06:35.836Z,100721.44
2018-08-27T09:09:07.686Z,100723.85
2018-08-27T09:11:36.629Z,100715.20
2018-08-27T09:14:06.666Z,100722.92
2018-08-27T09:16:36.348Z,100725.95
2018-08-27T09:19:08.785Z,100723.34
2018-08-27T09:21:38.109Z,100724.98
2018-08-27T09:24:08.198Z,100722.94
2018-08-27T09:26:37.433Z,100713.67
2018-08-27T09:29:07.153Z,100718.97
2018-08-27T09:31:36.389Z,100710.41
2018-08-27T09:34:06.625Z,100726.58
2018-08-27T09:36:37.615Z,100718.27
2018-08-27T09:39:09.281Z,100723.55
2018-08-27T09:41:39.465Z,100728.28
2018-08-27T09:44:08.806Z,100717.33
2018-08-27T09:46:38.314Z,100724.44
2018-08-27T09:49:07.773Z,100733.25
2018-08-27T09:51:36.967Z,100719.59
2018-08-27T09:54:07.793Z,100712.93
2018-08-27T09:56:38.087Z,100705.27
2018-08-27T09:59:09.368Z,100710.69
2018-08-27T10:01:39.759Z,100708.52
2018-08-27T10:04:08.906Z,100705.94
2018-08-27T10:06:38.357Z,100696.19
2018-08-27T10:09:08.574Z,100702.34
2018-08-27T10:11:37.726Z,100702.59
2018-08-27T10:14:07.108Z,100695.20
2018-08-27T10:16:37.144Z,100701.66
2018-08-27T10:19:06.213Z,100704.48
2018-08-27T10:21:36.465Z,100706.23
2018-08-27T10:24:05.827Z,100703.33
2018-08-27T10:26:35.992Z,100693.23
2018-08-27T10:29:06.617Z,100694.70
2018-08-27T10:31:36.162Z,100693.25
2018-08-27T10:34:06.479Z,100697.81
2018-08-27T10:36:35.166Z,100687.05
2018-08-27T10:39:04.472Z,100688.05
2018-08-27T10:41:34.332Z,100681.33
2018-08-27T10:44:04.862Z,100688.95
2018-08-27T10:46:35.877Z,100692.12
2018-08-27T10:49:05.440Z,100680.91
2018-08-27T10:51:35.272Z,100693.42
2018-08-27T10:54:04.943Z,100698.20
2018-08-27T10:56:36.229Z,100690.36
2018-08-27T10:59:06.069Z,100688.95
2018-08-27T11:01:35.931Z,100694.96
2018-08-27T11:04:06.226Z,100692.44
2018-08-27T11:06:35.371Z,100679.58
2018-08-27T11:09:05.421Z,100685.05
2018-08-27T11:11:34.535Z,100679.20
2018-08-27T11:14:03.400Z,100677.85
2018-08-27T11:16:32.528Z,100670.14
2018-08-27T11:19:02.228Z,100674.92
2018-08-27T11:21:32.078Z,100682.54
2018-08-27T11:24:06.571Z,100680.66
2018-08-27T11:26:40.486Z,100677.34
2018-08-27T11:29:10.669Z,100683.85
2018-08-27T11:31:39.961Z,100675.18
2018-08-27T11:34:09.469Z,100688.50
2018-08-27T11:36:38.189Z,100674.19
2018-08-27T11:39:09.116Z,100671.23
2018-08-27T11:41:38.476Z,100676.34
2018-08-27T11:44:07.653Z,100666.41
2018-08-27T11:46:37.132Z,100679.66
2018-08-27T11:49:07.033Z,100677.91
2018-08-27T11:51:37.001Z,100671.42
2018-08-27T11:54:06.704Z,100675.88
2018-08-27T11:56:37.498Z,100685.20
2018-08-27T11:59:07.491Z,100688.13
2018-08-27T12:01:43.416Z,100689.47
2018-08-27T12:04:14.043Z,100694.33
2018-08-27T12:06:43.480Z,100689.13
2018-08-27T12:09:14.430Z,100697.70
2018-08-27T12:11:43.946Z,100705.62
2018-08-27T12:14:12.716Z,100695.21
2018-08-27T12:16:42.297Z,100694.87
2018-08-27T12:19:11.214Z,100688.86
2018-08-27T12:21:40.787Z,100692.09
2018-08-27T12:24:09.923Z,100695.86
2018-08-27T12:26:38.992Z,100692.40
2018-08-27T12:29:09.341Z,100696.52
2018-08-27T12:31:38.353Z,100700.75
2018-08-27T12:34:08.174Z,100706.97
2018-08-27T12:36:36.913Z,100705.66
2018-08-27T12:39:08.124Z,100699.88
2018-08-27T12:41:37.218Z,100698.23
2018-08-27T12:44:05.995Z,100707.45
2018-08-27T12:46:37.998Z,100705.56
2018-08-27T12:49:07.869Z,100703.44
2018-08-27T12:51:37.396Z,100708.47
2018-08-27T12:54:07.068Z,100709.83
2018-08-27T12:56:38.992Z,100708.04
2018-08-27T12:59:08.519Z,100705.75
2018-08-27T13:01:37.353Z,100703.56
2018-08-27T13:04:08.704Z,100702.56
2018-08-27T13:06:38.066Z,100706.97
2018-08-27T13:09:09.525Z,100716.84
2018-08-27T13:11:38.949Z,100704.61
2018-08-27T13:14:07.829Z,100702.78
2018-08-27T13:16:37.026Z,100698.28
2018-08-27T13:19:06.350Z,100706.05
2018-08-27T13:21:36.171Z,100709.75
2018-08-27T13:24:05.584Z,100709.55
2018-08-27T13:26:35.210Z,100715.91
2018-08-27T13:29:05.205Z,100709.16
2018-08-27T13:31:35.094Z,100700.58
2018-08-27T13:34:05.812Z,100700.52
2018-08-27T13:36:35.934Z,100701.31
2018-08-27T13:39:06.602Z,100698.84
2018-08-27T13:41:35.922Z,100700.14
2018-08-27T13:44:06.956Z,100696.89
2018-08-27T13:46:37.498Z,100695.63
2018-08-27T13:49:06.888Z,100703.72
2018-08-27T13:51:42.061Z,100703.85
2018-08-27T13:54:12.788Z,100700.84
2018-08-27T13:56:42.470Z,100711.06
2018-08-27T13:59:11.781Z,100705.98
2018-08-27T14:01:40.732Z,100702.45
2018-08-27T14:04:09.513Z,100707.62
2018-08-27T14:06:38.543Z,100701.18
2018-08-27T14:09:08.495Z,100698.48
2018-08-27T14:11:38.631Z,100714.42
2018-08-27T14:14:07.866Z,100704.97
2018-08-27T14:16:36.880Z,100709.51
2018-08-27T14:19:06.134Z,100709.70
2018-08-27T14:21:34.935Z,100719.98
2018-08-27T14:24:03.846Z,100721.27
2018-08-27T14:26:32.612Z,100714.09
2018-08-27T14:29:01.871Z,100714.09
2018-08-27T14:31:33.438Z,100716.73
2018-08-27T14:34:03.120Z,100714.42
2018-08-27T14:36:33.638Z,100711.17
2018-08-27T14:39:03.043Z,100708.50
2018-08-27T14:41:32.360Z,100702.36
2018-08-27T14:44:01.845Z,100702.64
2018-08-27T14:46:31.095Z,100700.91
2018-08-27T14:49:00.060Z,100695.34
2018-08-27T14:51:29.460Z,100698.64
2018-08-27T14:53:58.302Z,100702.04
2018-08-27T14:56:28.037Z,100700.23
2018-08-27T14:58:58.300Z,100690.09
2018-08-27T15:01:27.515Z,100696.27
2018-08-27T15:03:57.431Z,100701.61
2018-08-27T15:06:26.883Z,100701.89
2018-08-27T15:08:56.008Z,100702.66
2018-08-27T15:11:25.496Z,100705.72
2018-08-27T15:13:54.968Z,100705.87
2018-08-27T15:16:23.705Z,100699.83
2018-08-27T15:18:52.658Z,100705.13
2018-08-27T15:21:21.537Z,100697.27
2018-08-27T15:23:50.456Z,100700.20
2018-08-27T15:26:20.676Z,100694.27
2018-08-27T15:28:50.716Z,100694.76
2018-08-27T15:31:21.321Z,100701.51
2018-08-27T15:33:51.226Z,100700.15
2018-08-27T15:36:20.951Z,100696.36
2018-08-27T15:38:50.298Z,100704.23
2018-08-27T15:41:20.806Z,100706.99
2018-08-27T15:43:50.626Z,100710.57
2018-08-27T15:46:25.664Z,100700.73
2018-08-27T15:48:55.904Z,100704.19
2018-08-27T15:51:25.572Z,100710.23
2018-08-27T15:53:55.528Z,100709.81
2018-08-27T15:56:25.431Z,100714.76
2018-08-27T15:58:55.165Z,100714.09
2018-08-27T16:01:25.127Z,100713.72
2018-08-27T16:03:54.397Z,100710.47
2018-08-27T16:06:25.437Z,100709.06
2018-08-27T16:08:57.164Z,100711.83
2018-08-27T16:11:26.600Z,100709.30
2018-08-27T16:13:56.181Z,100708.48
2018-08-27T16:16:25.342Z,100700.63
2018-08-27T16:18:55.268Z,100703.30
2018-08-27T16:21:24.486Z,100704.41
2018-08-27T16:23:54.515Z,100700.33
2018-08-27T16:26:24.520Z,100703.10
2018-08-27T16:28:54.340Z,100703.67
2018-08-27T16:31:24.115Z,100700.52
2018-08-27T16:33:53.921Z,100696.69
2018-08-27T16:36:24.805Z,100704.30
2018-08-27T16:38:54.975Z,100699.94
2018-08-27T16:41:25.124Z,100698.78
2018-08-27T16:43:55.077Z,100695.30
2018-08-27T16:46:25.338Z,100696.88
2018-08-27T16:48:55.504Z,100697.91
2018-08-27T16:51:26.361Z,100700.05
2018-08-27T16:53:56.384Z,100700.58
2018-08-27T16:56:26.410Z,100698.11
2018-08-27T16:58:58.435Z,100701.05
2018-08-27T17:01:28.962Z,100699.70
2018-08-27T17:03:59.626Z,100702.67
2018-08-27T17:06:29.486Z,100701.78
2018-08-27T17:08:58.987Z,100701.73
2018-08-27T17:11:30.614Z,100702.47
2018-08-27T17:14:01.521Z,100700.57
2018-08-27T17:16:32.533Z,100698.68
2018-08-27T17:19:03.689Z,100699.50
2018-08-27T17:21:32.379Z,100701.11
2018-08-27T17:24:01.149Z,100715.98
2018-08-27T17:26:30.046Z,100713.52
2018-08-27T17:28:59.277Z,100707.25
2018-08-27T17:31:28.258Z,100715.06
2018-08-27T17:33:57.174Z,100716.11
2018-08-27T17:36:26.400Z,100730.80
2018-08-27T17:38:56.389Z,100731.28
2018-08-27T17:41:26.324Z,100736.18
2018-08-27T17:43:55.819Z,100734.29
2018-08-27T17:46:25.065Z,100744.86
2018-08-27T17:48:54.137Z,100745.27
2018-08-27T17:51:23.632Z,100751.77
2018-08-27T17:53:53.056Z,100759.55
2018-08-27T17:56:24.080Z,100753.54
2018-08-27T17:58:53.878Z,100769.29
2018-08-27T18:01:23.979Z,100767.62
2018-08-27T18:03:52.786Z,100780.79
2018-08-27T18:06:22.573Z,100781.05
2018-08-27T18:08:51.758Z,100782.58
2018-08-27T18:11:20.915Z,100790.93
2018-08-27T18:13:49.625Z,100788.62
2018-08-27T18:16:18.876Z,100796.14
2018-08-27T18:18:49.478Z,100791.20
2018-08-27T18:21:20.052Z,100797.02
2018-08-27T18:23:49.030Z,100801.56
2018-08-27T18:26:18.134Z,100799.83
2018-08-27T18:28:47.886Z,100803.89
2018-08-27T18:31:18.377Z,100810.30
2018-08-27T18:33:48.596Z,100807.81
2018-08-27T18:36:18.815Z,100810.67
2018-08-27T18:38:49.253Z,100813.59
2018-08-27T18:41:19.252Z,100815.42
2018-08-27T18:43:49.080Z,100818.07
2018-08-27T18:46:18.791Z,100816.45
2018-08-27T18:48:49.052Z,100819.56
2018-08-27T18:51:18.637Z,100823.55
2018-08-27T18:53:48.887Z,100826.42
2018-08-27T18:56:17.740Z,100827.48
2018-08-27T18:58:47.381Z,100826.53
2018-08-27T19:01:17.460Z,100830.27
2018-08-27T19:03:46.544Z,100834.80
2018-08-27T19:06:15.989Z,100841.23
2018-08-27T19:08:46.774Z,100839.81
2018-08-27T19:11:16.515Z,100852.50
2018-08-27T19:13:46.869Z,100853.56
2018-08-27T19:16:15.875Z,100857.02
2018-08-27T19:18:46.555Z,100858.61
2018-08-27T19:21:16.840Z,100865.68
2018-08-27T19:23:46.672Z,100867.56
2018-08-27T19:26:17.260Z,100865.91
2018-08-27T19:28:46.496Z,100868.32
2018-08-27T19:31:16.477Z,100874.86
2018-08-27T19:33:47.099Z,100870.27
2018-08-27T19:36:16.114Z,100872.98
2018-08-27T19:38:46.925Z,100868.92
2018-08-27T19:41:17.642Z,100875.46
2018-08-27T19:43:48.001Z,100876.81
2018-08-27T19:46:17.090Z,100882.23
2018-08-27T19:48:46.321Z,100885.01
2018-08-27T19:51:16.417Z,100890.42
2018-08-27T19:53:46.101Z,100896.11
2018-08-27T19:56:16.735Z,100907.54
2018-08-27T19:58:45.782Z,100907.24
2018-08-27T20:01:14.742Z,100914.98
2018-08-27T20:03:45.278Z,100914.41
2018-08-27T20:06:17.350Z,100916.33
2018-08-27T20:08:46.523Z,100919.27
2018-08-27T20:11:15.349Z,100922.73
2018-08-27T20:13:45.265Z,100930.27
2018-08-27T20:16:15.531Z,100931.63
2018-08-27T20:18:45.293Z,100929.21
2018-08-27T20:21:15.670Z,100925.05
2018-08-27T20:23:45.439Z,100925.50
2018-08-27T20:26:14.606Z,100927.16
2018-08-27T20:28:43.990Z,100935.22
2018-08-27T20:31:15.508Z,100936.77
2018-08-27T20:33:45.246Z,100940.23
2018-08-27T20:36:15.069Z,100944.58
2018-08-27T20:38:45.347Z,100951.66
2018-08-27T20:41:14.980Z,100955.98
2018-08-27T20:43:44.671Z,100959.25
2018-08-27T20:46:14.666Z,100969.71
2018-08-27T20:48:44.591Z,100976.48
2018-08-27T20:51:13.349Z,100976.93
2018-08-27T20:53:43.573Z,100972.64
2018-08-27T20:56:12.691Z,100973.17
2018-08-27T20:58:44.875Z,100973.66
2018-08-27T21:01:15.116Z,100985.77
2018-08-27T21:03:44.936Z,100980.58
2018-08-27T21:06:14.994Z,100976.47
2018-08-27T21:08:47.941Z,100973.39
2018-08-27T21:11:18.100Z,100981.73
2018-08-27T21:13:49.538Z,100990.91
2018-08-27T21:16:21.124Z,100991.61
2018-08-27T21:18:51.014Z,100979.36
2018-08-27T21:21:19.887Z,100994.73
2018-08-27T21:23:49.501Z,100996.30
2018-08-27T21:26:19.556Z,101009.84
2018-08-27T21:28:50.086Z,101003.30
2018-08-27T21:31:20.142Z,101008.93
2018-08-27T21:33:49.810Z,101013.88
2018-08-27T21:36:20.242Z,101007.30
2018-08-27T21:38:51.365Z,101010.57
2018-08-27T21:41:22.101Z,101012.17
2018-08-27T21:43:52.027Z,101015.19
2018-08-27T21:46:25.182Z,101014.89
2018-08-27T21:49:02.240Z,101015.11
2018-08-27T21:51:33.484Z,101017.38
2018-08-27T21:54:04.225Z,101015.12
2018-08-27T21:56:35.664Z,101015.59
2018-08-27T21:59:09.871Z,101026.99
2018-08-27T22:01:39.972Z,101031.97
2018-08-27T22:10:05.738Z,101035.73
2018-08-27T22:12:41.086Z,101032.89
2018-08-27T22:15:10.221Z,101041.47
2018-08-27T22:17:40.198Z,101046.19
2018-08-27T22:20:10.910Z,101047.32
2018-08-27T22:22:41.682Z,101051.68
2018-08-27T22:25:15.250Z,101053.17
2018-08-27T22:27:46.868Z,101061.14
2018-08-27T22:30:17.367Z,101064.00
2018-08-27T22:32:48.386Z,101067.45
2018-08-27T22:35:17.499Z,101069.70
2018-08-27T22:37:48.203Z,101071.34
2018-08-27T22:40:17.626Z,101075.09
2018-08-27T22:42:47.686Z,101076.54
2018-08-27T22:45:18.159Z,101078.47
2018-08-27T22:47:47.039Z,101075.86
2018-08-27T22:50:17.729Z,101077.95
2018-08-27T22:52:47.936Z,101084.70
2018-08-27T22:55:18.053Z,101087.72
2018-08-27T22:57:48.050Z,101079.91
2018-08-27T23:00:23.412Z,101081.48
2018-08-27T23:02:57.818Z,101091.47
2018-08-27T23:05:27.343Z,101092.88
2018-08-27T23:07:56.812Z,101098.14
2018-08-27T23:10:26.856Z,101096.39
2018-08-27T23:12:56.048Z,101097.01
2018-08-27T23:15:26.098Z,101101.36
2018-08-27T23:17:55.264Z,101104.07
2018-08-27T23:20:24.885Z,101103.85
2018-08-27T23:22:54.672Z,101104.37
2018-08-27T23:25:24.732Z,101106.03
2018-08-27T23:27:54.368Z,101106.92
2018-08-27T23:30:23.595Z,101105.27
2018-08-27T23:32:52.380Z,101108.43
2018-08-27T23:35:22.289Z,101111.72
2018-08-27T23:37:52.091Z,101110.52
2018-08-27T23:40:21.539Z,101121.33
2018-08-27T23:42:51.048Z,101115.00
2018-08-27T23:45:20.664Z,101122.74
2018-08-27T23:47:50.282Z,101119.09
2018-08-27T23:50:20.241Z,101118.10
2018-08-27T23:52:50.120Z,101125.16
2018-08-27T23:55:19.239Z,101111.87
2018-08-27T23:57:49.555Z,101114.14
